Time;durP1;ratioP1;P1;durP2;ratioP2;P2;SDS_P1;SDS_P2;PMS_P1;PMS_P2;Temp;Humidity;BMP_temperature;BMP_pressure;BME280_temperature;BME280_humidity;BME280_pressure;Samples;Min_cycle;Max_cycle;Signal;HPM_P1;HPM_P2
2023/05/05 00:02:11;;;;;;;;;;;;;;;21.10;44.94;101541.19;5014629;28;4155;-70
2023/05/05 00:04:37;;;;;;;;;;;;;;;21.10;44.81;101544.06;5011183;28;4181;-70
2023/05/05 00:07:04;;;;;;;;;;;;;;;21.10;44.91;101546.94;5012800;28;4535;-70
2023/05/05 00:09:30;;;;;;;;;;;;;;;21.10;44.71;101549.81;5014283;28;4158;-70
2023/05/05 00:11:56;;;;;;;;;;;;;;;21.09;44.67;101540.41;5015229;28;4312;-71
2023/05/05 00:14:23;;;;;;;;;;;;;;;21.08;44.83;101533.16;5020378;28;4268;-70
2023/05/05 00:16:49;;;;;;;;;;;;;;;21.08;44.89;101538.94;5016088;28;4335;-70
2023/05/05 00:19:16;;;;;;;;;;;;;;;21.07;44.63;101537.44;5012127;28;4359;-70
2023/05/05 00:21:42;;;;;;;;;;;;;;;21.07;44.64;101540.34;5012555;28;4396;-71
2023/05/05 00:24:09;;;;;;;;;;;;;;;21.07;44.71;101543.22;5011981;28;4158;-70
2023/05/05 00:26:35;;;;;;;;;;;;;;;21.07;44.92;101531.69;5012014;28;4434;-71
2023/05/05 00:29:02;;;;;;;;;;;;;;;21.07;44.88;101536.69;5020787;28;5185;-70
2023/05/05 00:31:28;;;;;;;;;;;;;;;21.06;44.79;101538.81;5014699;28;3901;-70
2023/05/05 00:33:55;;;;;;;;;;;;;;;21.08;44.69;101538.19;5014720;28;4351;-70
2023/05/05 00:36:21;;;;;;;;;;;;;;;21.08;44.71;101532.44;5009949;28;4194;-69
2023/05/05 00:38:48;;;;;;;;;;;;;;;21.08;44.81;101532.44;5018781;28;4108;-70
2023/05/05 00:41:14;;;;;;;;;;;;;;;21.08;44.91;101529.56;5009988;28;4087;-71
2023/05/05 00:43:40;;;;;;;;;;;;;;;21.07;44.82;101528.81;5018656;28;4335;-70
2023/05/05 00:46:25;;;;;;;;;;;;;;;21.07;44.97;101533.81;5018725;28;4112;-71
2023/05/05 00:48:52;;;;;;;;;;;;;;;21.07;44.84;101525.16;5011936;28;4013;-71
2023/05/05 00:51:19;;;;;;;;;;;;;;;21.05;45.01;101522.94;5000603;28;4884;-70
2023/05/05 00:53:46;;;;;;;;;;;;;;;21.06;44.72;101527.31;5015808;28;4204;-70
2023/05/05 00:56:12;;;;;;;;;;;;;;;21.05;44.89;101520.06;5011448;28;3946;-70
2023/05/05 00:58:39;;;;;;;;;;;;;;;21.04;44.61;101520.69;5016728;28;4120;-70
2023/05/05 01:01:06;;;;;;;;;;;;;;;21.05;44.81;101516.41;5012432;28;4059;-70
2023/05/05 01:03:34;;;;;;;;;;;;;;;21.05;44.85;101516.41;5008212;28;4312;-71
2023/05/05 01:06:04;;;;;;;;;;;;;;;21.04;44.90;101509.16;5009275;28;4136;-70
2023/05/05 01:08:37;;;;;;;;;;;;;;;21.03;44.89;101513.44;5013289;28;4311;-70
2023/05/05 01:11:24;;;;;;;;;;;;;;;21.04;44.80;101503.41;5022248;28;4223;-70
2023/05/05 01:14:02;;;;;;;;;;;;;;;21.02;44.99;101500.41;5016465;28;4318;-70
2023/05/05 01:16:29;;;;;;;;;;;;;;;21.02;44.98;101506.19;5013371;28;4094;-70
2023/05/05 01:19:14;;;;;;;;;;;;;;;21.00;44.87;101503.94;5012668;28;4052;-70
2023/05/05 01:25:41;;;;;;;;;;;;;;;21.01;44.96;101498.94;5000480;28;4219;-70
2023/05/05 01:28:18;;;;;;;;;;;;;;;21.01;45.08;101504.69;5005631;28;4040;-69
2023/05/05 01:31:03;;;;;;;;;;;;;;;21.01;44.72;101498.94;5008291;28;4532;-70
2023/05/05 01:33:32;;;;;;;;;;;;;;;21.00;44.95;101497.44;5010064;28;3990;-70
2023/05/05 01:36:01;;;;;;;;;;;;;;;21.00;44.97;101500.31;5012386;28;4049;-71
2023/05/05 01:38:31;;;;;;;;;;;;;;;21.00;44.79;101503.19;5044952;28;3862;-70
2023/05/05 01:41:03;;;;;;;;;;;;;;;20.99;44.97;101508.22;5011768;28;4821;-70
2023/05/05 01:43:30;;;;;;;;;;;;;;;20.99;44.81;101501.72;5040902;28;4791;-70
2023/05/05 01:45:56;;;;;;;;;;;;;;;20.98;45.04;101503.84;5014733;28;4108;-70
2023/05/05 01:48:23;;;;;;;;;;;;;;;20.99;44.92;101495.94;5012328;28;4338;-70
2023/05/05 01:50:49;;;;;;;;;;;;;;;20.98;44.95;101506.72;5043459;28;5148;-69
2023/05/05 01:53:16;;;;;;;;;;;;;;;20.98;44.83;101505.94;5029457;28;3983;-70
2023/05/05 01:55:42;;;;;;;;;;;;;;;20.96;44.73;101508.72;5011863;28;4063;-70
2023/05/05 01:58:09;;;;;;;;;;;;;;;20.97;44.99;101492.97;5042217;28;4273;-70
2023/05/05 02:00:35;;;;;;;;;;;;;;;20.96;44.78;101497.19;5008667;28;4012;-70
2023/05/05 02:03:03;;;;;;;;;;;;;;;20.95;45.09;101495.72;5009811;28;4017;-70
2023/05/05 02:05:29;;;;;;;;;;;;;;;20.93;45.15;101490.59;5006036;28;4158;-71
2023/05/05 02:07:56;;;;;;;;;;;;;;;20.92;45.08;101486.97;4999907;28;3975;-70
2023/05/05 02:10:23;;;;;;;;;;;;;;;20.92;45.00;101489.09;5012064;28;4232;-70
2023/05/05 02:12:50;;;;;;;;;;;;;;;20.91;45.02;101494.13;5010427;28;3961;-71
2023/05/05 02:15:16;;;;;;;;;;;;;;;20.91;44.91;101499.88;5001036;28;4488;-71
2023/05/05 02:17:43;;;;;;;;;;;;;;;20.92;45.07;101503.50;5010030;28;4177;-70
2023/05/05 02:20:09;;;;;;;;;;;;;;;20.91;45.09;101502.00;5011007;28;4408;-71
2023/05/05 02:22:36;;;;;;;;;;;;;;;20.91;44.93;101507.75;5014029;28;4054;-70
2023/05/05 02:25:02;;;;;;;;;;;;;;;20.90;45.06;101500.50;5006281;28;4081;-70
2023/05/05 02:27:29;;;;;;;;;;;;;;;20.88;45.03;101498.25;5011985;28;4180;-70
2023/05/05 02:29:56;;;;;;;;;;;;;;;20.89;44.99;101499.00;5010210;28;4094;-70
2023/05/05 02:32:26;;;;;;;;;;;;;;;20.88;45.08;101504.03;5015686;28;4109;-70
2023/05/05 02:34:53;;;;;;;;;;;;;;;20.89;44.92;101496.91;5009526;28;4063;-70
2023/05/05 02:37:20;;;;;;;;;;;;;;;20.89;45.04;101499.00;5008855;28;4324;-70
2023/05/05 02:39:57;;;;;;;;;;;;;;;20.88;45.12;101483.88;5013932;28;4503;-70
2023/05/05 02:42:31;;;;;;;;;;;;;;;20.88;45.00;101486.75;5017278;28;4289;-71
2023/05/05 02:44:58;;;;;;;;;;;;;;;20.88;45.12;101480.25;5000769;28;4222;-70
2023/05/05 02:47:27;;;;;;;;;;;;;;;20.88;44.91;101486.75;4994461;28;4099;-71
2023/05/05 02:49:53;;;;;;;;;;;;;;;20.87;45.07;101482.38;5010103;28;4715;-71
2023/05/05 02:52:20;;;;;;;;;;;;;;;20.86;45.08;101483.75;5010015;28;5058;-71
2023/05/05 02:54:46;;;;;;;;;;;;;;;20.87;44.93;101485.25;5011797;28;4041;-69
2023/05/05 02:57:16;;;;;;;;;;;;;;;20.86;44.94;101495.28;5024733;28;4032;-70
2023/05/05 02:59:51;;;;;;;;;;;;;;;20.86;44.97;101497.41;5022824;28;4507;-71
2023/05/05 03:02:40;;;;;;;;;;;;;;;20.86;45.10;101492.38;5016535;28;4081;-71
2023/05/05 03:05:10;;;;;;;;;;;;;;;20.85;45.09;101490.91;5017413;28;4275;-70
2023/05/05 03:07:41;;;;;;;;;;;;;;;20.86;45.01;101495.28;5026166;28;4013;-71
2023/05/05 03:10:08;;;;;;;;;;;;;;;20.85;45.03;101493.78;5007779;28;4494;-70
2023/05/05 03:12:44;;;;;;;;;;;;;;;20.85;44.90;101493.78;4999317;28;3965;-70
2023/05/05 03:15:21;;;;;;;;;;;;;;;20.85;45.13;101488.03;4994508;28;3995;-70
2023/05/05 03:17:48;;;;;;;;;;;;;;;20.83;45.12;101502.31;5007695;28;3953;-70
2023/05/05 03:20:15;;;;;;;;;;;;;;;20.83;45.00;101493.66;5010219;28;4254;-70
2023/05/05 03:22:45;;;;;;;;;;;;;;;20.83;45.05;101487.19;5006837;28;4292;-70
2023/05/05 03:25:12;;;;;;;;;;;;;;;20.83;45.07;101490.78;5006338;28;4288;-70
2023/05/05 03:27:39;;;;;;;;;;;;;;;20.83;45.08;101484.31;4995463;28;4064;-71
2023/05/05 03:30:06;;;;;;;;;;;;;;;20.83;45.00;101484.31;5017777;28;4008;-70
2023/05/05 03:32:37;;;;;;;;;;;;;;;20.83;44.91;101490.06;5008098;28;4141;-70
2023/05/05 03:35:04;;;;;;;;;;;;;;;20.82;45.04;101483.56;5014086;28;4151;-70
2023/05/05 03:37:32;;;;;;;;;;;;;;;20.82;45.15;101483.56;4994852;28;4227;-71
2023/05/05 03:39:59;;;;;;;;;;;;;;;20.81;45.15;101484.94;4996687;28;4218;-71
2023/05/05 03:42:25;;;;;;;;;;;;;;;20.82;45.09;101482.78;4985508;28;4309;-70
2023/05/05 03:44:52;;;;;;;;;;;;;;;20.81;44.98;101487.81;4990141;28;4418;-71
2023/05/05 03:47:23;;;;;;;;;;;;;;;20.80;44.97;101488.44;5005379;28;4510;-70
2023/05/05 03:49:50;;;;;;;;;;;;;;;20.80;45.02;101479.78;5015737;28;4030;-71
2023/05/05 03:52:17;;;;;;;;;;;;;;;20.80;45.14;101474.81;5012568;28;4217;-70
2023/05/05 03:54:44;;;;;;;;;;;;;;;20.78;44.98;101471.81;5005808;28;3957;-71
2023/05/05 03:57:11;;;;;;;;;;;;;;;20.80;45.17;101476.91;5019878;28;4840;-71
2023/05/05 03:59:37;;;;;;;;;;;;;;;20.79;45.26;101479.06;4994257;28;4084;-71
2023/05/05 04:02:04;;;;;;;;;;;;;;;20.78;45.14;101477.56;5009236;28;4137;-70
2023/05/05 04:04:30;;;;;;;;;;;;;;;20.78;45.15;101471.06;5004404;28;4154;-70
2023/05/05 04:06:57;;;;;;;;;;;;;;;20.77;44.96;101473.19;5014324;28;4188;-70
2023/05/05 04:09:23;;;;;;;;;;;;;;;20.77;45.01;101469.56;5013247;28;4195;-70
2023/05/05 04:11:49;;;;;;;;;;;;;;;20.76;45.06;101468.81;5004078;28;4046;-71
2023/05/05 04:14:16;;;;;;;;;;;;;;;20.76;44.97;101480.34;4992178;28;5339;-71
2023/05/05 04:16:42;;;;;;;;;;;;;;;20.70;45.26;101471.38;5001902;28;4079;-71
2023/05/05 04:19:11;;;;;;;;;;;;;;;20.66;45.20;101471.91;5011473;28;4139;-71
2023/05/05 04:21:38;;;;;;;;;;;;;;;20.67;45.26;101472.66;5025681;28;3930;-71
2023/05/05 04:24:05;;;;;;;;;;;;;;;20.66;45.27;101482.66;5005678;28;3926;-71
2023/05/05 04:26:32;;;;;;;;;;;;;;;20.67;45.23;101478.41;4999519;28;4164;-71
2023/05/05 04:28:58;;;;;;;;;;;;;;;20.66;45.25;101482.66;5017120;28;4220;-71
2023/05/05 04:31:24;;;;;;;;;;;;;;;20.65;45.21;101481.16;5007430;28;4106;-70
2023/05/05 04:33:51;;;;;;;;;;;;;;;20.66;45.27;101488.41;5021484;28;4049;-71
2023/05/05 04:36:18;;;;;;;;;;;;;;;20.65;45.17;101486.91;5019213;28;4134;-71
2023/05/05 04:38:45;;;;;;;;;;;;;;;20.64;45.23;101486.19;5030625;28;4312;-70
2023/05/05 04:41:11;;;;;;;;;;;;;;;20.63;45.37;101496.19;5018136;28;4228;-71
2023/05/05 04:43:40;;;;;;;;;;;;;;;20.64;45.17;101500.56;5027817;28;4073;-71
2023/05/05 04:46:06;;;;;;;;;;;;;;;20.66;45.33;101508.53;5023306;28;4351;-71
2023/05/05 04:48:35;;;;;;;;;;;;;;;20.65;45.39;101509.94;5015026;28;4366;-71
2023/05/05 04:51:03;;;;;;;;;;;;;;;20.64;45.28;101514.94;4998724;28;3956;-71
2023/05/05 04:53:30;;;;;;;;;;;;;;;20.63;45.27;101507.69;5022686;28;4131;-71
2023/05/05 04:55:56;;;;;;;;;;;;;;;20.63;45.31;101506.94;5044644;28;4287;-71
2023/05/05 04:58:22;;;;;;;;;;;;;;;20.62;45.43;101500.44;5011387;28;4137;-71
2023/05/05 05:00:49;;;;;;;;;;;;;;;20.63;45.35;101506.94;5013904;28;4095;-71
2023/05/05 05:03:17;;;;;;;;;;;;;;;20.62;45.41;101506.22;5009325;28;4214;-71
2023/05/05 05:05:43;;;;;;;;;;;;;;;20.53;45.23;101503.50;5013485;28;4012;-77
2023/05/05 05:08:10;;;;;;;;;;;;;;;20.46;44.32;101505.28;5009722;28;4016;-70
2023/05/05 05:10:38;;;;;;;;;;;;;;;20.57;44.67;101509.47;5005226;28;4116;-68
2023/05/05 05:13:04;;;;;;;;;;;;;;;20.64;44.50;101517.09;5005370;28;4163;-68
2023/05/05 05:15:31;;;;;;;;;;;;;;;20.64;44.59;101519.97;5006204;28;4043;-67
2023/05/05 05:17:57;;;;;;;;;;;;;;;20.65;44.69;101504.19;5010440;28;4067;-68
2023/05/05 05:20:24;;;;;;;;;;;;;;;20.66;44.55;101506.44;5014111;28;4106;-67
2023/05/05 05:22:50;;;;;;;;;;;;;;;20.69;44.30;101508.03;5015736;28;4165;-67
2023/05/05 05:25:19;;;;;;;;;;;;;;;20.69;44.58;101510.16;5015491;28;4308;-67
2023/05/05 05:27:46;;;;;;;;;;;;;;;20.68;44.92;101515.19;5014852;28;3951;-67
2023/05/05 05:30:31;;;;;;;;;;;;;;;20.70;44.90;101520.28;5005420;28;4096;-67
2023/05/05 05:32:58;;;;;;;;;;;;;;;20.70;45.06;101523.91;5009131;28;4460;-67
2023/05/05 05:35:24;;;;;;;;;;;;;;;20.72;44.99;101523.28;5027576;28;4154;-67
2023/05/05 05:37:51;;;;;;;;;;;;;;;20.66;44.91;101514.31;5017159;28;4125;-66
2023/05/05 05:40:18;;;;;;;;;;;;;;;20.62;43.36;101517.72;5022976;28;4314;-66
2023/05/05 05:42:45;;;;;;;;;;;;;;;20.63;42.88;101524.94;5009972;28;4141;-71
2023/05/05 05:45:11;;;;;;;;;;;;;;;20.58;42.57;101528.25;5017996;28;4958;-67
2023/05/05 05:47:38;;;;;;;;;;;;;;;20.76;41.74;101523.50;5013739;28;4154;-71
2023/05/05 05:50:05;;;;;;;;;;;;;;;20.71;41.65;101524.69;5015783;28;4126;-71
2023/05/05 05:52:34;;;;;;;;;;;;;;;20.67;41.58;101513.69;5012429;28;4223;-71
2023/05/05 05:55:03;;;;;;;;;;;;;;;20.62;41.43;101517.72;5018829;28;4108;-71
2023/05/05 05:57:29;;;;;;;;;;;;;;;20.64;41.36;101514.22;5016606;28;4014;-71
2023/05/05 05:59:56;;;;;;;;;;;;;;;20.57;41.26;101518.09;5020280;28;4524;-71
2023/05/05 06:02:26;;;;;;;;;;;;;;;20.57;41.19;101521.75;4999248;28;4292;-75
2023/05/05 06:04:52;;;;;;;;;;;;;;;20.53;41.57;101515.00;5028282;28;4057;-70
2023/05/05 06:07:19;;;;;;;;;;;;;;;20.51;41.10;101519.25;5015968;28;4182;-70
2023/05/05 06:09:46;;;;;;;;;;;;;;;20.45;41.15;101521.03;5013788;28;4075;-72
2023/05/05 06:12:13;;;;;;;;;;;;;;;20.48;40.84;101520.53;5006977;28;3880;-72
2023/05/05 06:14:40;;;;;;;;;;;;;;;20.50;40.96;101529.25;5018457;28;4118;-82
2023/05/05 06:17:07;;;;;;;;;;;;;;;20.48;40.39;101517.63;5021701;28;4091;-79
2023/05/05 06:19:34;;;;;;;;;;;;;;;20.43;39.88;101523.78;5012419;28;4027;-79
2023/05/05 06:22:00;;;;;;;;;;;;;;;20.41;39.38;101518.69;5002101;28;4172;-79
2023/05/05 06:24:26;;;;;;;;;;;;;;;20.46;39.39;101526.16;5018580;28;4012;-80
2023/05/05 06:26:53;;;;;;;;;;;;;;;20.47;39.38;101521.16;5015174;28;4058;-80
2023/05/05 06:29:19;;;;;;;;;;;;;;;20.44;39.49;101523.16;5016524;28;4064;-81
2023/05/05 06:31:46;;;;;;;;;;;;;;;20.38;39.17;101522.81;5016459;28;4110;-78
2023/05/05 06:34:12;;;;;;;;;;;;;;;20.48;38.63;101514.75;5010627;28;4011;-79
2023/05/05 06:36:39;;;;;;;;;;;;;;;20.46;38.85;101514.66;5016176;28;4097;-78
2023/05/05 06:39:05;;;;;;;;;;;;;;;20.45;39.16;101515.28;5013408;28;3887;-80
2023/05/05 06:41:32;;;;;;;;;;;;;;;20.45;39.54;101521.75;5025718;28;4037;-80
2023/05/05 06:43:58;;;;;;;;;;;;;;;20.48;39.61;101517.63;5021914;28;3920;-78
2023/05/05 06:46:25;;;;;;;;;;;;;;;20.51;40.39;101519.25;5017269;28;3954;-80
2023/05/05 06:48:51;;;;;;;;;;;;;;;20.55;40.85;101520.84;5018318;28;4108;-80
2023/05/05 06:51:18;;;;;;;;;;;;;;;20.55;40.73;101518.72;5014953;28;3929;-81
2023/05/05 06:53:44;;;;;;;;;;;;;;;20.59;40.96;101526.84;5020364;28;4004;-80
2023/05/05 06:56:11;;;;;;;;;;;;;;;20.60;41.12;101523.34;5013976;28;3968;-78
2023/05/05 06:58:37;;;;;;;;;;;;;;;20.59;41.26;101535.50;5017650;28;4086;-80
2023/05/05 07:01:04;;;;;;;;;;;;;;;20.59;41.31;101523.97;5017692;28;3961;-80
2023/05/05 07:03:30;;;;;;;;;;;;;;;20.61;41.17;101538.47;5015939;28;4007;-81
2023/05/05 07:05:56;;;;;;;;;;;;;;;20.60;41.44;101543.50;5016809;28;4220;-82
2023/05/05 07:08:23;;;;;;;;;;;;;;;20.62;41.63;101534.25;5019486;28;4056;-82
2023/05/05 07:10:50;;;;;;;;;;;;;;;20.62;41.67;101528.47;5017742;28;3974;-81
2023/05/05 07:13:16;;;;;;;;;;;;;;;20.62;41.60;101534.97;5015777;28;4050;-81
2023/05/05 07:15:45;;;;;;;;;;;;;;;20.64;41.81;101537.22;5017245;28;4145;-80
2023/05/05 07:18:12;;;;;;;;;;;;;;;20.63;41.64;101530.72;5017094;28;4035;-81
2023/05/05 07:20:38;;;;;;;;;;;;;;;20.65;41.72;101544.47;5016112;28;3963;-81
2023/05/05 07:23:05;;;;;;;;;;;;;;;20.65;41.84;101544.47;5016878;28;4020;-80
2023/05/05 07:25:31;;;;;;;;;;;;;;;20.64;41.83;101543.72;5017667;28;4198;-82
2023/05/05 07:27:57;;;;;;;;;;;;;;;20.65;42.10;101541.59;5020257;28;3909;-81
2023/05/05 07:30:26;;;;;;;;;;;;;;;20.65;42.17;101544.47;5015124;28;4052;-82
2023/05/05 07:32:53;;;;;;;;;;;;;;;20.67;42.31;101550.34;5014861;28;3902;-81
2023/05/05 07:35:20;;;;;;;;;;;;;;;20.66;42.32;101543.06;5020801;28;3949;-80
2023/05/05 07:37:46;;;;;;;;;;;;;;;20.66;42.36;101545.97;5019094;28;3928;-81
2023/05/05 07:40:13;;;;;;;;;;;;;;;20.67;42.39;101541.72;5016076;28;4027;-81
2023/05/05 07:42:39;;;;;;;;;;;;;;;20.67;42.35;101553.97;5016155;28;3934;-81
2023/05/05 07:45:06;;;;;;;;;;;;;;;20.66;42.40;101551.72;5013979;28;4392;-81
2023/05/05 07:47:32;;;;;;;;;;;;;;;20.69;42.56;101544.72;5017984;28;3921;-80
2023/05/05 07:49:59;;;;;;;;;;;;;;;20.71;42.38;101547.69;5015803;28;4078;-80
2023/05/05 07:52:26;;;;;;;;;;;;;;;20.72;42.58;101543.44;5020128;28;4041;-80
2023/05/05 07:55:11;;;;;;;;;;;;;;;20.70;42.62;101543.31;5020546;28;4081;-79
2023/05/05 07:57:37;;;;;;;;;;;;;;;20.72;42.56;101543.44;5018239;28;3925;-79
2023/05/05 08:00:04;;;;;;;;;;;;;;;20.73;42.65;101542.06;5019803;28;5214;-80
2023/05/05 08:02:37;;;;;;;;;;;;;;;20.72;42.55;101543.44;5016215;28;4063;-80
2023/05/05 08:05:03;;;;;;;;;;;;;;;20.71;42.83;101541.94;5013232;28;4198;-78
2023/05/05 08:07:30;;;;;;;;;;;;;;;20.73;42.85;101549.94;5016874;28;4033;-79
2023/05/05 08:09:56;;;;;;;;;;;;;;;20.74;42.67;101539.94;5016072;28;3969;-79
2023/05/05 08:12:23;;;;;;;;;;;;;;;20.73;42.90;101535.53;5015529;28;3907;-80
2023/05/05 08:14:49;;;;;;;;;;;;;;;20.72;42.86;101537.66;5021983;28;3925;-79
2023/05/05 08:17:16;;;;;;;;;;;;;;;20.74;42.77;101540.66;5022446;28;4115;-80
2023/05/05 08:19:42;;;;;;;;;;;;;;;20.74;42.94;101542.81;5015981;28;3905;-82
2023/05/05 08:22:09;;;;;;;;;;;;;;;20.75;43.02;101545.03;5012822;28;4367;-79
2023/05/05 08:24:35;;;;;;;;;;;;;;;20.76;42.92;101537.16;5010336;28;3986;-80
2023/05/05 08:27:02;;;;;;;;;;;;;;;20.73;42.89;101527.66;5012056;28;3970;-80
2023/05/05 08:29:28;;;;;;;;;;;;;;;20.75;42.97;101535.66;5011198;28;4480;-80
2023/05/05 08:31:55;;;;;;;;;;;;;;;20.74;43.12;101534.91;5016130;28;4175;-78
2023/05/05 08:34:21;;;;;;;;;;;;;;;20.77;43.11;101527.88;5015938;28;4111;-79
2023/05/05 08:36:49;;;;;;;;;;;;;;;20.76;43.19;101531.41;5018658;28;3999;-79
2023/05/05 08:39:16;;;;;;;;;;;;;;;20.77;43.21;101527.88;5012374;28;4250;-79
2023/05/05 08:41:42;;;;;;;;;;;;;;;20.76;43.07;101532.16;5011995;28;4194;-80
2023/05/05 08:44:09;;;;;;;;;;;;;;;20.79;43.29;101530.88;5014161;28;4178;-74
2023/05/05 08:46:35;;;;;;;;;;;;;;;20.80;43.26;101529.50;5013749;28;4108;-80
2023/05/05 08:49:02;;;;;;;;;;;;;;;20.80;43.28;101543.88;5016235;28;4178;-80
2023/05/05 08:51:30;;;;;;;;;;;;;;;20.81;43.37;101539.63;5010371;28;4128;-81
2023/05/05 08:53:57;;;;;;;;;;;;;;;20.80;43.35;101549.66;5014413;28;3990;-81
2023/05/05 08:56:25;;;;;;;;;;;;;;;20.79;43.59;101542.38;5014659;28;4018;-79
2023/05/05 08:58:51;;;;;;;;;;;;;;;20.86;43.22;101540.59;5013693;28;5129;-80
2023/05/05 09:01:18;;;;;;;;;;;;;;;20.86;43.25;101541.31;5017149;28;4186;-80
2023/05/05 09:03:44;;;;;;;;;;;;;;;20.87;43.28;101537.09;5016730;28;4009;-80
2023/05/05 09:06:11;;;;;;;;;;;;;;;20.86;43.38;101532.69;5012055;28;4069;-76
2023/05/05 09:08:37;;;;;;;;;;;;;;;20.88;43.34;101532.81;5014545;28;4001;-81
2023/05/05 09:11:04;;;;;;;;;;;;;;;20.84;43.45;101531.84;5009439;28;4027;-76
2023/05/05 09:13:30;;;;;;;;;;;;;;;20.83;43.59;101530.34;5007746;28;4329;-75
2023/05/05 09:15:57;;;;;;;;;;;;;;;20.81;43.37;101525.22;5009923;28;4491;-73
2023/05/05 09:18:24;;;;;;;;;;;;;;;20.50;42.09;101517.75;5009590;28;4147;-73
2023/05/05 09:20:50;;;;;;;;;;;;;;;20.37;41.75;101521.31;5008967;28;4091;-78
2023/05/05 09:23:17;;;;;;;;;;;;;;;20.47;41.15;101527.63;5009430;28;4332;-77
2023/05/05 09:25:44;;;;;;;;;;;;;;;20.56;41.63;101526.00;5010594;28;4128;-83
2023/05/05 09:28:14;;;;;;;;;;;;;;;20.66;41.32;101522.94;5011254;28;4062;-76
2023/05/05 09:30:42;;;;;;;;;;;;;;;20.70;41.51;101514.53;5011576;28;4329;-80
2023/05/05 09:33:08;;;;;;;;;;;;;;;20.78;41.56;101520.75;5007651;28;4237;-75
2023/05/05 09:35:50;;;;;;;;;;;;;;;20.77;41.61;101510.59;5007752;28;4207;-74
2023/05/05 09:38:20;;;;;;;;;;;;;;;20.80;41.81;101538.13;5005151;28;4897;-74
2023/05/05 09:40:47;;;;;;;;;;;;;;;20.82;42.22;101523.84;5005285;28;4540;-74
2023/05/05 09:43:14;;;;;;;;;;;;;;;20.83;42.23;101516.69;5009487;28;5079;-77
2023/05/05 09:45:40;;;;;;;;;;;;;;;20.81;42.44;101522.34;5009728;28;4115;-74
2023/05/05 09:48:07;;;;;;;;;;;;;;;20.82;42.97;101528.84;5008248;28;4748;-70
2023/05/05 09:50:42;;;;;;;;;;;;;;;20.79;42.95;101525.09;5008182;28;4085;-73
2023/05/05 09:53:09;;;;;;;;;;;;;;;20.80;41.83;101525.84;5004526;28;4083;-75
2023/05/05 09:55:36;;;;;;;;;;;;;;;20.71;43.04;101524.69;5009620;28;3937;-76
2023/05/05 09:58:32;;;;;;;;;;;;;;;20.76;43.14;101529.28;5009406;28;3973;-74
2023/05/05 10:00:59;;;;;;;;;;;;;;;20.75;43.09;101530.63;4993829;28;3991;-73
2023/05/05 10:03:25;;;;;;;;;;;;;;;20.68;42.08;101525.94;5007406;28;4050;-73
2023/05/05 10:05:52;;;;;;;;;;;;;;;20.68;39.36;101514.41;5011370;28;3974;-72
2023/05/05 10:08:19;;;;;;;;;;;;;;;20.68;38.98;101511.53;5007723;28;4086;-75
2023/05/05 10:10:48;;;;;;;;;;;;;;;20.65;40.23;101509.94;5006854;28;4068;-76
2023/05/05 10:13:14;;;;;;;;;;;;;;;20.74;42.02;101514.75;5014004;28;4554;-80
2023/05/05 10:15:41;;;;;;;;;;;;;;;20.87;43.97;101513.31;5009649;28;4345;-70
2023/05/05 10:18:07;;;;;;;;;;;;;;;20.89;42.95;101505.53;5012594;28;3997;-78
2023/05/05 10:20:35;;;;;;;;;;;;;;;20.90;43.00;101515.66;5011728;28;4199;-71
2023/05/05 10:23:01;;;;;;;;;;;;;;;20.86;42.61;101512.53;5009867;28;4145;-69
2023/05/05 10:25:29;;;;;;;;;;;;;;;20.88;42.69;101512.66;5013767;28;4170;-70
2023/05/05 10:27:58;;;;;;;;;;;;;;;20.85;43.05;101505.31;5010584;28;4131;-70
2023/05/05 10:30:30;;;;;;;;;;;;;;;20.87;43.00;101501.78;5008260;28;4539;-69
2023/05/05 10:33:02;;;;;;;;;;;;;;;20.88;43.06;101503.28;5009458;28;4088;-69
2023/05/05 10:35:50;;;;;;;;;;;;;;;20.88;43.18;101509.03;5006727;28;4332;-69
2023/05/05 10:38:16;;;;;;;;;;;;;;;20.88;43.44;101514.78;5017581;28;4301;-69
2023/05/05 10:40:44;;;;;;;;;;;;;;;20.89;43.79;101516.28;5015216;28;4295;-70
2023/05/05 10:43:11;;;;;;;;;;;;;;;20.88;44.02;101498.25;5013200;28;4181;-69
2023/05/05 10:45:37;;;;;;;;;;;;;;;20.89;44.14;101499.00;5006788;28;4153;-69
2023/05/05 10:48:05;;;;;;;;;;;;;;;20.91;44.05;101491.25;5012553;28;4238;-69
2023/05/05 10:50:32;;;;;;;;;;;;;;;20.92;44.04;101489.84;5012276;28;4815;-69
2023/05/05 10:53:18;;;;;;;;;;;;;;;20.92;43.79;101486.22;5018367;28;4149;-70
2023/05/05 10:56:03;;;;;;;;;;;;;;;20.95;43.94;101482.06;5010037;28;4145;-70
2023/05/05 10:58:33;;;;;;;;;;;;;;;20.92;44.28;101492.72;5012955;28;4143;-70
2023/05/05 11:01:12;;;;;;;;;;;;;;;20.98;44.26;101482.91;5013462;28;4339;-69
2023/05/05 11:03:39;;;;;;;;;;;;;;;21.00;44.27;101471.50;5013345;28;4163;-69
2023/05/05 11:06:08;;;;;;;;;;;;;;;21.00;44.36;101477.28;5012947;28;4161;-69
2023/05/05 11:08:35;;;;;;;;;;;;;;;20.97;44.49;101476.41;5008811;28;4218;-69
2023/05/05 11:11:01;;;;;;;;;;;;;;;20.99;44.23;101470.03;5012149;28;4384;-69
2023/05/05 11:13:28;;;;;;;;;;;;;;;20.98;44.51;101462.75;5010421;28;4145;-69
2023/05/05 11:15:54;;;;;;;;;;;;;;;21.01;44.63;101464.38;5011763;28;4267;-68
2023/05/05 11:18:36;;;;;;;;;;;;;;;20.99;44.81;101461.41;5009552;28;4279;-68
2023/05/05 11:21:13;;;;;;;;;;;;;;;20.98;44.80;101454.91;5011777;28;4197;-68
2023/05/05 11:23:41;;;;;;;;;;;;;;;21.00;44.81;101451.34;5006141;28;4094;-69
2023/05/05 11:26:08;;;;;;;;;;;;;;;20.99;45.24;101453.50;5008648;28;4567;-68
2023/05/05 11:28:35;;;;;;;;;;;;;;;21.01;45.15;101447.84;5010832;28;4153;-68
2023/05/05 11:31:01;;;;;;;;;;;;;;;21.04;45.30;101440.06;5014049;28;4097;-68
2023/05/05 11:33:37;;;;;;;;;;;;;;;21.02;45.16;101442.84;5012530;28;4216;-69
2023/05/05 11:36:06;;;;;;;;;;;;;;;21.05;45.61;101436.56;5010055;28;4015;-69
2023/05/05 11:38:52;;;;;;;;;;;;;;;21.05;45.57;101435.78;5012127;28;4060;-69
2023/05/05 11:41:22;;;;;;;;;;;;;;;21.06;45.63;101431.53;5011459;28;4133;-68
2023/05/05 11:43:48;;;;;;;;;;;;;;;21.04;45.72;101435.03;5011474;28;4596;-69
2023/05/05 11:46:15;;;;;;;;;;;;;;;21.06;45.75;101414.25;5011989;28;4522;-72
2023/05/05 11:48:42;;;;;;;;;;;;;;;21.05;45.76;101425.03;5009119;28;4268;-66
2023/05/05 11:51:12;;;;;;;;;;;;;;;21.04;46.25;101417.03;5009282;28;4226;-75
2023/05/05 11:53:40;;;;;;;;;;;;;;;21.08;46.02;101411.50;5011983;28;4559;-76
2023/05/05 11:56:07;;;;;;;;;;;;;;;21.08;45.78;101411.50;5018030;28;3934;-72
2023/05/05 11:58:34;;;;;;;;;;;;;;;21.10;45.66;101423.13;5009089;28;4287;-76
2023/05/05 12:01:07;;;;;;;;;;;;;;;21.12;45.43;101423.97;5007929;28;4001;-75
2023/05/05 12:03:34;;;;;;;;;;;;;;;21.12;45.92;101426.84;5012830;28;4204;-75
2023/05/05 12:06:01;;;;;;;;;;;;;;;21.12;45.90;101414.59;5011815;28;4099;-78
2023/05/05 12:08:27;;;;;;;;;;;;;;;21.16;46.14;101419.78;5012844;28;4137;-81
2023/05/05 12:11:03;;;;;;;;;;;;;;;21.19;46.00;101406.97;5012142;28;4067;-71
2023/05/05 12:13:30;;;;;;;;;;;;;;;21.23;46.16;101407.94;5011955;28;4616;-72
2023/05/05 12:16:06;;;;;;;;;;;;;;;21.28;45.75;101415.41;5011363;28;4191;-73
2023/05/05 12:18:32;;;;;;;;;;;;;;;21.23;46.05;101413.69;5011761;28;4156;-72
2023/05/05 12:20:59;;;;;;;;;;;;;;;21.24;45.94;101403.69;5012789;28;3965;-72
2023/05/05 12:23:28;;;;;;;;;;;;;;;21.26;46.25;101398.03;5011530;28;4347;-74
2023/05/05 12:25:55;;;;;;;;;;;;;;;21.28;46.22;101409.66;5009469;28;4286;-73
2023/05/05 12:28:21;;;;;;;;;;;;;;;21.28;46.24;101401.00;5010526;28;4075;-73
2023/05/05 12:30:57;;;;;;;;;;;;;;;21.26;46.31;101398.03;5008908;28;4298;-78
2023/05/05 12:33:23;;;;;;;;;;;;;;;21.26;46.30;101409.56;5011434;28;4496;-75
2023/05/05 12:35:50;;;;;;;;;;;;;;;21.27;46.22;101405.28;5010535;28;4080;-77
2023/05/05 12:38:16;;;;;;;;;;;;;;;21.28;45.98;101406.78;5008666;28;4217;-75
2023/05/05 12:40:46;;;;;;;;;;;;;;;21.26;45.98;101403.78;5000849;28;4083;-76
2023/05/05 12:43:32;;;;;;;;;;;;;;;21.28;46.09;101395.25;5008074;28;4179;-76
2023/05/05 12:46:03;;;;;;;;;;;;;;;21.29;46.08;101390.22;5003097;28;3956;-75
2023/05/05 12:48:29;;;;;;;;;;;;;;;21.29;46.11;101384.47;5007552;28;4037;-75
2023/05/05 12:51:09;;;;;;;;;;;;;;;21.30;46.17;101380.97;5008281;28;3914;-76
2023/05/05 12:53:35;;;;;;;;;;;;;;;21.30;46.05;101383.06;5023751;28;5331;-76
2023/05/05 12:56:01;;;;;;;;;;;;;;;21.31;46.06;101382.44;5007365;28;4655;-77
2023/05/05 12:58:30;;;;;;;;;;;;;;;21.33;46.21;101378.91;5040211;28;4009;-77